sensor_id;sensor_type;location;lat;lon;timestamp;P1;durP1;ratioP1;P2;durP2;ratioP2
32347;SDS011;18821;44.800;10.326;2023-11-19T00:00:56;7.65;;;3.60;;
32347;SDS011;18821;44.800;10.326;2023-11-19T00:03:23;10.55;;;3.63;;
32347;SDS011;18821;44.800;10.326;2023-11-19T00:05:49;9.02;;;3.30;;
32347;SDS011;18821;44.800;10.326;2023-11-19T00:08:15;25.52;;;5.22;;
32347;SDS011;18821;44.800;10.326;2023-11-19T00:10:41;10.88;;;4.15;;
32347;SDS011;18821;44.800;10.326;2023-11-19T00:13:07;8.25;;;3.70;;
32347;SDS011;18821;44.800;10.326;2023-11-19T00:15:35;9.75;;;4.40;;
32347;SDS011;18821;44.800;10.326;2023-11-19T00:18:01;10.25;;;3.88;;
32347;SDS011;18821;44.800;10.326;2023-11-19T00:20:29;6.65;;;3.17;;
32347;SDS011;18821;44.800;10.326;2023-11-19T00:22:56;9.57;;;4.72;;
32347;SDS011;18821;44.800;10.326;2023-11-19T00:25:22;12.27;;;3.97;;
32347;SDS011;18821;44.800;10.326;2023-11-19T00:27:49;9.13;;;4.30;;
32347;SDS011;18821;44.800;10.326;2023-11-19T00:30:16;9.18;;;3.00;;
32347;SDS011;18821;44.800;10.326;2023-11-19T00:32:43;8.85;;;4.10;;
32347;SDS011;18821;44.800;10.326;2023-11-19T00:35:09;10.40;;;3.58;;
32347;SDS011;18821;44.800;10.326;2023-11-19T00:37:41;7.68;;;2.63;;
32347;SDS011;18821;44.800;10.326;2023-11-19T00:40:08;4.22;;;2.45;;
32347;SDS011;18821;44.800;10.326;2023-11-19T00:42:35;5.50;;;2.65;;
32347;SDS011;18821;44.800;10.326;2023-11-19T00:45:02;9.38;;;3.42;;
32347;SDS011;18821;44.800;10.326;2023-11-19T00:47:29;8.95;;;2.30;;
32347;SDS011;18821;44.800;10.326;2023-11-19T00:49:56;3.92;;;2.65;;
32347;SDS011;18821;44.800;10.326;2023-11-19T00:52:22;10.50;;;3.10;;
32347;SDS011;18821;44.800;10.326;2023-11-19T00:54:48;5.57;;;2.55;;
32347;SDS011;18821;44.800;10.326;2023-11-19T00:57:14;5.53;;;2.60;;
32347;SDS011;18821;44.800;10.326;2023-11-19T00:59:41;8.70;;;2.92;;
32347;SDS011;18821;44.800;10.326;2023-11-19T01:02:08;8.02;;;3.40;;
32347;SDS011;18821;44.800;10.326;2023-11-19T01:04:34;8.82;;;3.45;;
32347;SDS011;18821;44.800;10.326;2023-11-19T01:07:01;6.20;;;3.50;;
32347;SDS011;18821;44.800;10.326;2023-11-19T01:09:29;8.85;;;3.78;;
32347;SDS011;18821;44.800;10.326;2023-11-19T01:11:58;4.85;;;2.55;;
32347;SDS011;18821;44.800;10.326;2023-11-19T01:14:26;3.97;;;2.75;;
32347;SDS011;18821;44.800;10.326;2023-11-19T01:16:52;9.50;;;3.00;;
32347;SDS011;18821;44.800;10.326;2023-11-19T01:19:22;4.22;;;2.30;;
32347;SDS011;18821;44.800;10.326;2023-11-19T01:21:48;6.47;;;2.60;;
32347;SDS011;18821;44.800;10.326;2023-11-19T01:24:15;4.40;;;2.30;;
32347;SDS011;18821;44.800;10.326;2023-11-19T01:26:41;4.38;;;2.58;;
32347;SDS011;18821;44.800;10.326;2023-11-19T01:29:14;8.85;;;3.15;;
32347;SDS011;18821;44.800;10.326;2023-11-19T01:31:43;8.45;;;2.33;;
32347;SDS011;18821;44.800;10.326;2023-11-19T01:34:12;8.30;;;2.90;;
32347;SDS011;18821;44.800;10.326;2023-11-19T01:36:39;3.75;;;2.25;;
32347;SDS011;18821;44.800;10.326;2023-11-19T01:39:05;5.30;;;2.72;;
32347;SDS011;18821;44.800;10.326;2023-11-19T01:41:35;4.32;;;2.30;;
32347;SDS011;18821;44.800;10.326;2023-11-19T01:44:01;4.57;;;2.80;;
32347;SDS011;18821;44.800;10.326;2023-11-19T01:46:28;5.82;;;2.60;;
32347;SDS011;18821;44.800;10.326;2023-11-19T01:48:55;11.63;;;2.90;;
32347;SDS011;18821;44.800;10.326;2023-11-19T01:51:21;8.52;;;3.05;;
32347;SDS011;18821;44.800;10.326;2023-11-19T01:53:48;8.38;;;2.58;;
32347;SDS011;18821;44.800;10.326;2023-11-19T01:56:15;6.05;;;2.75;;
32347;SDS011;18821;44.800;10.326;2023-11-19T01:58:41;9.02;;;2.60;;
32347;SDS011;18821;44.800;10.326;2023-11-19T02:01:10;4.72;;;2.50;;
32347;SDS011;18821;44.800;10.326;2023-11-19T02:03:37;7.63;;;3.33;;
32347;SDS011;18821;44.800;10.326;2023-11-19T02:06:04;6.18;;;2.10;;
32347;SDS011;18821;44.800;10.326;2023-11-19T02:08:31;7.65;;;3.10;;
32347;SDS011;18821;44.800;10.326;2023-11-19T02:10:57;8.20;;;3.38;;
32347;SDS011;18821;44.800;10.326;2023-11-19T02:13:24;8.32;;;3.63;;
32347;SDS011;18821;44.800;10.326;2023-11-19T02:15:51;6.65;;;3.05;;
32347;SDS011;18821;44.800;10.326;2023-11-19T02:18:24;7.35;;;3.28;;
32347;SDS011;18821;44.800;10.326;2023-11-19T02:20:54;5.60;;;2.78;;
32347;SDS011;18821;44.800;10.326;2023-11-19T02:23:21;7.78;;;3.08;;
32347;SDS011;18821;44.800;10.326;2023-11-19T02:25:50;6.75;;;2.80;;
32347;SDS011;18821;44.800;10.326;2023-11-19T02:28:27;6.78;;;2.85;;
32347;SDS011;18821;44.800;10.326;2023-11-19T02:30:54;5.57;;;2.50;;
32347;SDS011;18821;44.800;10.326;2023-11-19T02:33:20;5.47;;;2.13;;
32347;SDS011;18821;44.800;10.326;2023-11-19T02:35:46;5.85;;;2.25;;
32347;SDS011;18821;44.800;10.326;2023-11-19T02:38:12;3.33;;;2.10;;
32347;SDS011;18821;44.800;10.326;2023-11-19T02:40:39;4.15;;;2.40;;
32347;SDS011;18821;44.800;10.326;2023-11-19T02:43:05;5.80;;;2.22;;
32347;SDS011;18821;44.800;10.326;2023-11-19T02:45:31;4.72;;;2.20;;
32347;SDS011;18821;44.800;10.326;2023-11-19T02:47:58;3.33;;;2.03;;
32347;SDS011;18821;44.800;10.326;2023-11-19T02:50:27;6.85;;;2.40;;
32347;SDS011;18821;44.800;10.326;2023-11-19T02:52:55;8.80;;;2.20;;
32347;SDS011;18821;44.800;10.326;2023-11-19T02:55:22;6.97;;;2.55;;
32347;SDS011;18821;44.800;10.326;2023-11-19T02:57:49;6.88;;;2.38;;
32347;SDS011;18821;44.800;10.326;2023-11-19T03:00:16;5.45;;;2.83;;
32347;SDS011;18821;44.800;10.326;2023-11-19T03:02:49;6.82;;;3.92;;
32347;SDS011;18821;44.800;10.326;2023-11-19T03:05:24;7.95;;;2.92;;
32347;SDS011;18821;44.800;10.326;2023-11-19T03:07:52;7.30;;;3.65;;
32347;SDS011;18821;44.800;10.326;2023-11-19T03:10:18;6.30;;;3.25;;
32347;SDS011;18821;44.800;10.326;2023-11-19T03:12:44;7.22;;;3.03;;
32347;SDS011;18821;44.800;10.326;2023-11-19T03:15:11;5.22;;;2.75;;
32347;SDS011;18821;44.800;10.326;2023-11-19T03:17:41;5.80;;;3.00;;
32347;SDS011;18821;44.800;10.326;2023-11-19T03:20:11;9.10;;;2.88;;
32347;SDS011;18821;44.800;10.326;2023-11-19T03:22:43;8.55;;;3.88;;
32347;SDS011;18821;44.800;10.326;2023-11-19T03:25:09;7.93;;;3.17;;
32347;SDS011;18821;44.800;10.326;2023-11-19T03:27:36;6.35;;;3.22;;
32347;SDS011;18821;44.800;10.326;2023-11-19T03:30:04;7.50;;;3.63;;
32347;SDS011;18821;44.800;10.326;2023-11-19T03:32:31;8.45;;;2.53;;
32347;SDS011;18821;44.800;10.326;2023-11-19T03:34:58;5.65;;;3.47;;
32347;SDS011;18821;44.800;10.326;2023-11-19T03:37:25;8.02;;;4.47;;
32347;SDS011;18821;44.800;10.326;2023-11-19T03:39:53;6.80;;;3.72;;
32347;SDS011;18821;44.800;10.326;2023-11-19T03:42:20;5.53;;;2.65;;
32347;SDS011;18821;44.800;10.326;2023-11-19T03:44:47;6.32;;;3.35;;
32347;SDS011;18821;44.800;10.326;2023-11-19T03:47:15;7.88;;;3.55;;
32347;SDS011;18821;44.800;10.326;2023-11-19T03:49:41;8.02;;;3.05;;
32347;SDS011;18821;44.800;10.326;2023-11-19T03:52:08;7.97;;;2.75;;
32347;SDS011;18821;44.800;10.326;2023-11-19T03:54:34;6.18;;;2.70;;
32347;SDS011;18821;44.800;10.326;2023-11-19T03:57:01;4.43;;;2.20;;
32347;SDS011;18821;44.800;10.326;2023-11-19T03:59:29;8.80;;;2.90;;
32347;SDS011;18821;44.800;10.326;2023-11-19T04:01:55;5.80;;;2.55;;
32347;SDS011;18821;44.800;10.326;2023-11-19T04:04:22;5.15;;;2.00;;
32347;SDS011;18821;44.800;10.326;2023-11-19T04:06:48;9.40;;;2.78;;
32347;SDS011;18821;44.800;10.326;2023-11-19T04:09:14;3.88;;;1.95;;
32347;SDS011;18821;44.800;10.326;2023-11-19T04:11:41;4.18;;;2.42;;
32347;SDS011;18821;44.800;10.326;2023-11-19T04:14:07;4.05;;;1.80;;
32347;SDS011;18821;44.800;10.326;2023-11-19T04:16:35;7.72;;;2.35;;
32347;SDS011;18821;44.800;10.326;2023-11-19T04:19:01;4.18;;;2.20;;
32347;SDS011;18821;44.800;10.326;2023-11-19T04:21:27;4.03;;;2.03;;
32347;SDS011;18821;44.800;10.326;2023-11-19T04:23:54;4.57;;;2.42;;
32347;SDS011;18821;44.800;10.326;2023-11-19T04:26:20;6.63;;;2.00;;
32347;SDS011;18821;44.800;10.326;2023-11-19T04:28:46;7.00;;;2.55;;
32347;SDS011;18821;44.800;10.326;2023-11-19T04:31:15;6.40;;;2.13;;
32347;SDS011;18821;44.800;10.326;2023-11-19T04:33:41;4.35;;;2.50;;
32347;SDS011;18821;44.800;10.326;2023-11-19T04:36:09;5.75;;;1.95;;
32347;SDS011;18821;44.800;10.326;2023-11-19T04:38:35;9.25;;;3.38;;
32347;SDS011;18821;44.800;10.326;2023-11-19T04:41:04;4.55;;;2.05;;
32347;SDS011;18821;44.800;10.326;2023-11-19T04:43:31;2.80;;;1.90;;
32347;SDS011;18821;44.800;10.326;2023-11-19T04:45:57;6.40;;;1.90;;
32347;SDS011;18821;44.800;10.326;2023-11-19T04:48:23;8.05;;;2.63;;
32347;SDS011;18821;44.800;10.326;2023-11-19T04:50:49;5.32;;;2.33;;
32347;SDS011;18821;44.800;10.326;2023-11-19T04:53:19;4.22;;;1.92;;
32347;SDS011;18821;44.800;10.326;2023-11-19T04:55:45;3.78;;;2.05;;
32347;SDS011;18821;44.800;10.326;2023-11-19T04:58:11;3.10;;;1.80;;
32347;SDS011;18821;44.800;10.326;2023-11-19T05:00:37;4.25;;;2.15;;
32347;SDS011;18821;44.800;10.326;2023-11-19T05:03:03;2.65;;;1.83;;
32347;SDS011;18821;44.800;10.326;2023-11-19T05:05:30;7.72;;;2.38;;
32347;SDS011;18821;44.800;10.326;2023-11-19T05:07:56;4.57;;;2.33;;
32347;SDS011;18821;44.800;10.326;2023-11-19T05:10:22;3.42;;;1.77;;
32347;SDS011;18821;44.800;10.326;2023-11-19T05:12:50;4.43;;;1.90;;
32347;SDS011;18821;44.800;10.326;2023-11-19T05:15:17;6.90;;;2.05;;
32347;SDS011;18821;44.800;10.326;2023-11-19T05:17:43;4.95;;;2.20;;
32347;SDS011;18821;44.800;10.326;2023-11-19T05:20:10;6.60;;;1.98;;
32347;SDS011;18821;44.800;10.326;2023-11-19T05:22:41;5.80;;;1.95;;
32347;SDS011;18821;44.800;10.326;2023-11-19T05:25:08;4.60;;;1.85;;
32347;SDS011;18821;44.800;10.326;2023-11-19T05:27:36;4.38;;;1.90;;
32347;SDS011;18821;44.800;10.326;2023-11-19T05:30:03;2.55;;;1.80;;
32347;SDS011;18821;44.800;10.326;2023-11-19T05:32:32;3.67;;;1.70;;
32347;SDS011;18821;44.800;10.326;2023-11-19T05:34:59;3.55;;;1.67;;
32347;SDS011;18821;44.800;10.326;2023-11-19T05:37:25;4.25;;;1.80;;
32347;SDS011;18821;44.800;10.326;2023-11-19T05:39:51;2.90;;;2.03;;
32347;SDS011;18821;44.800;10.326;2023-11-19T05:42:18;3.33;;;1.80;;
32347;SDS011;18821;44.800;10.326;2023-11-19T05:44:44;3.50;;;2.00;;
32347;SDS011;18821;44.800;10.326;2023-11-19T05:47:10;4.20;;;2.25;;
32347;SDS011;18821;44.800;10.326;2023-11-19T05:49:37;3.97;;;2.15;;
32347;SDS011;18821;44.800;10.326;2023-11-19T05:52:03;3.85;;;1.98;;
32347;SDS011;18821;44.800;10.326;2023-11-19T05:54:32;3.65;;;1.92;;
32347;SDS011;18821;44.800;10.326;2023-11-19T05:57:06;6.10;;;1.85;;
32347;SDS011;18821;44.800;10.326;2023-11-19T05:59:34;4.60;;;2.00;;
32347;SDS011;18821;44.800;10.326;2023-11-19T06:02:01;5.30;;;2.63;;
32347;SDS011;18821;44.800;10.326;2023-11-19T06:04:28;5.40;;;2.20;;
32347;SDS011;18821;44.800;10.326;2023-11-19T06:06:54;4.97;;;2.38;;
32347;SDS011;18821;44.800;10.326;2023-11-19T06:09:21;9.75;;;2.30;;
32347;SDS011;18821;44.800;10.326;2023-11-19T06:11:50;2.80;;;1.90;;
32347;SDS011;18821;44.800;10.326;2023-11-19T06:14:18;5.05;;;2.15;;
32347;SDS011;18821;44.800;10.326;2023-11-19T06:16:44;5.85;;;2.22;;
32347;SDS011;18821;44.800;10.326;2023-11-19T06:19:10;6.78;;;1.98;;
32347;SDS011;18821;44.800;10.326;2023-11-19T06:21:37;7.68;;;2.28;;
32347;SDS011;18821;44.800;10.326;2023-11-19T06:24:03;5.85;;;2.42;;
32347;SDS011;18821;44.800;10.326;2023-11-19T06:26:29;8.70;;;2.58;;
32347;SDS011;18821;44.800;10.326;2023-11-19T06:28:56;6.82;;;2.35;;
32347;SDS011;18821;44.800;10.326;2023-11-19T06:31:22;7.93;;;2.53;;
32347;SDS011;18821;44.800;10.326;2023-11-19T06:33:48;6.97;;;2.42;;
32347;SDS011;18821;44.800;10.326;2023-11-19T06:36:14;8.00;;;2.90;;
32347;SDS011;18821;44.800;10.326;2023-11-19T06:38:44;6.35;;;2.78;;
32347;SDS011;18821;44.800;10.326;2023-11-19T06:41:10;6.78;;;2.38;;
32347;SDS011;18821;44.800;10.326;2023-11-19T06:43:36;4.57;;;2.15;;
32347;SDS011;18821;44.800;10.326;2023-11-19T06:46:03;5.95;;;2.50;;
32347;SDS011;18821;44.800;10.326;2023-11-19T06:48:34;5.28;;;2.70;;
32347;SDS011;18821;44.800;10.326;2023-11-19T06:51:00;4.60;;;2.33;;
32347;SDS011;18821;44.800;10.326;2023-11-19T06:53:26;9.52;;;3.38;;
32347;SDS011;18821;44.800;10.326;2023-11-19T06:55:53;7.03;;;2.95;;
32347;SDS011;18821;44.800;10.326;2023-11-19T06:58:19;4.18;;;2.72;;
32347;SDS011;18821;44.800;10.326;2023-11-19T07:00:45;6.53;;;2.60;;
32347;SDS011;18821;44.800;10.326;2023-11-19T07:03:12;16.65;;;2.45;;
32347;SDS011;18821;44.800;10.326;2023-11-19T07:05:38;10.38;;;2.55;;
32347;SDS011;18821;44.800;10.326;2023-11-19T07:08:08;4.85;;;2.22;;
32347;SDS011;18821;44.800;10.326;2023-11-19T07:10:33;3.35;;;2.05;;
32347;SDS011;18821;44.800;10.326;2023-11-19T07:13:00;5.22;;;2.53;;
32347;SDS011;18821;44.800;10.326;2023-11-19T07:15:27;10.25;;;4.13;;
32347;SDS011;18821;44.800;10.326;2023-11-19T07:17:53;17.50;;;3.75;;
32347;SDS011;18821;44.800;10.326;2023-11-19T07:20:19;11.50;;;3.15;;
32347;SDS011;18821;44.800;10.326;2023-11-19T07:22:46;17.23;;;5.13;;
32347;SDS011;18821;44.800;10.326;2023-11-19T07:25:13;14.32;;;5.85;;
32347;SDS011;18821;44.800;10.326;2023-11-19T07:27:39;14.45;;;5.82;;
32347;SDS011;18821;44.800;10.326;2023-11-19T07:30:06;11.57;;;5.28;;
32347;SDS011;18821;44.800;10.326;2023-11-19T07:32:32;11.82;;;5.45;;
32347;SDS011;18821;44.800;10.326;2023-11-19T07:34:59;10.65;;;4.47;;
32347;SDS011;18821;44.800;10.326;2023-11-19T07:37:25;14.93;;;4.28;;
32347;SDS011;18821;44.800;10.326;2023-11-19T07:39:51;7.50;;;3.83;;
32347;SDS011;18821;44.800;10.326;2023-11-19T07:42:17;9.13;;;3.22;;
32347;SDS011;18821;44.800;10.326;2023-11-19T07:44:44;8.73;;;2.58;;
32347;SDS011;18821;44.800;10.326;2023-11-19T07:47:10;20.40;;;2.50;;
32347;SDS011;18821;44.800;10.326;2023-11-19T07:49:38;5.25;;;2.70;;
32347;SDS011;18821;44.800;10.326;2023-11-19T07:52:04;7.35;;;2.67;;
32347;SDS011;18821;44.800;10.326;2023-11-19T07:54:30;4.78;;;2.40;;
32347;SDS011;18821;44.800;10.326;2023-11-19T07:56:56;5.57;;;2.83;;
32347;SDS011;18821;44.800;10.326;2023-11-19T07:59:23;6.85;;;2.67;;
32347;SDS011;18821;44.800;10.326;2023-11-19T08:01:48;6.38;;;2.80;;
32347;SDS011;18821;44.800;10.326;2023-11-19T08:04:15;7.53;;;2.97;;
32347;SDS011;18821;44.800;10.326;2023-11-19T08:06:41;6.38;;;2.60;;
32347;SDS011;18821;44.800;10.326;2023-11-19T08:09:07;5.50;;;3.00;;
32347;SDS011;18821;44.800;10.326;2023-11-19T08:11:39;4.70;;;2.78;;
32347;SDS011;18821;44.800;10.326;2023-11-19T08:14:06;9.98;;;3.30;;
32347;SDS011;18821;44.800;10.326;2023-11-19T08:16:33;5.22;;;2.80;;
32347;SDS011;18821;44.800;10.326;2023-11-19T08:19:00;7.63;;;3.75;;
32347;SDS011;18821;44.800;10.326;2023-11-19T08:21:25;10.07;;;4.55;;
32347;SDS011;18821;44.800;10.326;2023-11-19T08:23:52;5.93;;;3.70;;
32347;SDS011;18821;44.800;10.326;2023-11-19T08:26:18;13.45;;;4.07;;
32347;SDS011;18821;44.800;10.326;2023-11-19T08:28:44;13.52;;;5.47;;
32347;SDS011;18821;44.800;10.326;2023-11-19T08:31:11;13.38;;;5.45;;
32347;SDS011;18821;44.800;10.326;2023-11-19T08:33:37;12.55;;;6.20;;
32347;SDS011;18821;44.800;10.326;2023-11-19T08:36:04;11.80;;;5.88;;
32347;SDS011;18821;44.800;10.326;2023-11-19T08:38:30;10.13;;;5.78;;
32347;SDS011;18821;44.800;10.326;2023-11-19T08:40:56;10.05;;;5.85;;
32347;SDS011;18821;44.800;10.326;2023-11-19T08:43:25;11.48;;;5.60;;
32347;SDS011;18821;44.800;10.326;2023-11-19T08:45:51;9.43;;;5.90;;
32347;SDS011;18821;44.800;10.326;2023-11-19T08:48:17;15.18;;;6.32;;
32347;SDS011;18821;44.800;10.326;2023-11-19T08:50:43;11.63;;;6.65;;
32347;SDS011;18821;44.800;10.326;2023-11-19T08:53:10;12.00;;;6.55;;
32347;SDS011;18821;44.800;10.326;2023-11-19T08:55:37;14.07;;;7.07;;
32347;SDS011;18821;44.800;10.326;2023-11-19T08:58:02;12.68;;;6.88;;
32347;SDS011;18821;44.800;10.326;2023-11-19T09:00:29;15.88;;;6.75;;
32347;SDS011;18821;44.800;10.326;2023-11-19T09:02:57;14.82;;;7.38;;
32347;SDS011;18821;44.800;10.326;2023-11-19T09:05:24;15.15;;;8.13;;
32347;SDS011;18821;44.800;10.326;2023-11-19T09:07:50;12.07;;;7.03;;
32347;SDS011;18821;44.800;10.326;2023-11-19T09:10:16;17.27;;;8.80;;
32347;SDS011;18821;44.800;10.326;2023-11-19T09:12:42;15.98;;;8.00;;
32347;SDS011;18821;44.800;10.326;2023-11-19T09:15:08;16.35;;;7.43;;
32347;SDS011;18821;44.800;10.326;2023-11-19T09:17:35;13.43;;;7.57;;
32347;SDS011;18821;44.800;10.326;2023-11-19T09:20:02;14.68;;;7.50;;
32347;SDS011;18821;44.800;10.326;2023-11-19T09:22:28;16.88;;;7.78;;
32347;SDS011;18821;44.800;10.326;2023-11-19T09:24:54;16.20;;;8.68;;
32347;SDS011;18821;44.800;10.326;2023-11-19T09:27:21;20.70;;;9.38;;
32347;SDS011;18821;44.800;10.326;2023-11-19T09:29:47;14.60;;;8.73;;
32347;SDS011;18821;44.800;10.326;2023-11-19T09:32:15;19.40;;;8.88;;
32347;SDS011;18821;44.800;10.326;2023-11-19T09:34:41;15.45;;;8.77;;
32347;SDS011;18821;44.800;10.326;2023-11-19T09:37:06;11.90;;;8.00;;
32347;SDS011;18821;44.800;10.326;2023-11-19T09:39:33;15.00;;;7.90;;
32347;SDS011;18821;44.800;10.326;2023-11-19T09:41:59;14.55;;;8.13;;
32347;SDS011;18821;44.800;10.326;2023-11-19T09:44:26;16.85;;;8.40;;
32347;SDS011;18821;44.800;10.326;2023-11-19T09:46:53;16.27;;;8.05;;
32347;SDS011;18821;44.800;10.326;2023-11-19T09:49:21;13.95;;;8.25;;
32347;SDS011;18821;44.800;10.326;2023-11-19T09:51:49;14.45;;;7.72;;
32347;SDS011;18821;44.800;10.326;2023-11-19T09:54:15;13.23;;;8.30;;
32347;SDS011;18821;44.800;10.326;2023-11-19T09:56:42;15.85;;;8.50;;
32347;SDS011;18821;44.800;10.326;2023-11-19T09:59:09;15.55;;;8.95;;
32347;SDS011;18821;44.800;10.326;2023-11-19T10:01:36;15.98;;;8.35;;
32347;SDS011;18821;44.800;10.326;2023-11-19T10:04:03;15.55;;;8.88;;
32347;SDS011;18821;44.800;10.326;2023-11-19T10:06:30;14.80;;;8.23;;
32347;SDS011;18821;44.800;10.326;2023-11-19T10:08:57;18.73;;;8.57;;
32347;SDS011;18821;44.800;10.326;2023-11-19T10:11:24;14.15;;;8.10;;
32347;SDS011;18821;44.800;10.326;2023-11-19T10:13:51;16.33;;;8.25;;
32347;SDS011;18821;44.800;10.326;2023-11-19T10:16:19;15.02;;;8.38;;
32347;SDS011;18821;44.800;10.326;2023-11-19T10:18:46;15.82;;;7.70;;
32347;SDS011;18821;44.800;10.326;2023-11-19T10:21:17;20.23;;;8.73;;
32347;SDS011;18821;44.800;10.326;2023-11-19T10:23:56;11.82;;;7.00;;
32347;SDS011;18821;44.800;10.326;2023-11-19T10:26:25;14.98;;;7.82;;
32347;SDS011;18821;44.800;10.326;2023-11-19T10:28:52;16.02;;;7.63;;
32347;SDS011;18821;44.800;10.326;2023-11-19T10:31:20;14.13;;;7.50;;
32347;SDS011;18821;44.800;10.326;2023-11-19T10:33:50;15.50;;;7.72;;
32347;SDS011;18821;44.800;10.326;2023-11-19T10:36:17;15.88;;;8.48;;
32347;SDS011;18821;44.800;10.326;2023-11-19T10:38:53;16.67;;;8.20;;
32347;SDS011;18821;44.800;10.326;2023-11-19T10:41:53;15.05;;;7.68;;
32347;SDS011;18821;44.800;10.326;2023-11-19T10:44:12;17.85;;;7.10;;
32347;SDS011;18821;44.800;10.326;2023-11-19T10:46:56;15.65;;;8.27;;
32347;SDS011;18821;44.800;10.326;2023-11-19T10:49:22;16.60;;;7.72;;
32347;SDS011;18821;44.800;10.326;2023-11-19T10:51:48;15.70;;;7.63;;
32347;SDS011;18821;44.800;10.326;2023-11-19T10:54:15;11.95;;;6.65;;
32347;SDS011;18821;44.800;10.326;2023-11-19T10:56:44;11.50;;;6.60;;
32347;SDS011;18821;44.800;10.326;2023-11-19T10:59:16;17.60;;;7.07;;
32347;SDS011;18821;44.800;10.326;2023-11-19T11:01:45;14.50;;;7.13;;
32347;SDS011;18821;44.800;10.326;2023-11-19T11:04:19;14.65;;;7.53;;
32347;SDS011;18821;44.800;10.326;2023-11-19T11:06:48;14.75;;;7.63;;
32347;SDS011;18821;44.800;10.326;2023-11-19T11:09:15;12.60;;;7.30;;
32347;SDS011;18821;44.800;10.326;2023-11-19T11:11:45;14.70;;;7.60;;
32347;SDS011;18821;44.800;10.326;2023-11-19T11:14:13;17.80;;;7.80;;
32347;SDS011;18821;44.800;10.326;2023-11-19T11:16:42;15.65;;;8.25;;
32347;SDS011;18821;44.800;10.326;2023-11-19T11:19:10;15.20;;;8.45;;
32347;SDS011;18821;44.800;10.326;2023-11-19T11:21:38;17.17;;;8.40;;
32347;SDS011;18821;44.800;10.326;2023-11-19T11:30:04;18.05;;;9.68;;
32347;SDS011;18821;44.800;10.326;2023-11-19T11:33:00;20.13;;;9.57;;
32347;SDS011;18821;44.800;10.326;2023-11-19T11:35:53;18.42;;;9.00;;
32347;SDS011;18821;44.800;10.326;2023-11-19T11:38:30;19.80;;;10.23;;
32347;SDS011;18821;44.800;10.326;2023-11-19T11:41:15;16.73;;;9.60;;
32347;SDS011;18821;44.800;10.326;2023-11-19T11:43:45;16.88;;;9.45;;
32347;SDS011;18821;44.800;10.326;2023-11-19T11:54:09;15.88;;;9.02;;
32347;SDS011;18821;44.800;10.326;2023-11-19T11:56:38;18.38;;;9.85;;
32347;SDS011;18821;44.800;10.326;2023-11-19T11:59:07;16.80;;;9.68;;
32347;SDS011;18821;44.800;10.326;2023-11-19T12:01:57;16.90;;;9.20;;
32347;SDS011;18821;44.800;10.326;2023-11-19T12:04:27;17.52;;;10.15;;
32347;SDS011;18821;44.800;10.326;2023-11-19T12:07:04;18.88;;;10.65;;
32347;SDS011;18821;44.800;10.326;2023-11-19T12:09:31;18.50;;;9.38;;
32347;SDS011;18821;44.800;10.326;2023-11-19T12:20:05;21.13;;;10.00;;
32347;SDS011;18821;44.800;10.326;2023-11-19T12:22:37;17.73;;;9.60;;
32347;SDS011;18821;44.800;10.326;2023-11-19T12:25:07;16.75;;;9.13;;
32347;SDS011;18821;44.800;10.326;2023-11-19T12:27:34;18.88;;;9.93;;
32347;SDS011;18821;44.800;10.326;2023-11-19T12:30:04;19.95;;;9.57;;
32347;SDS011;18821;44.800;10.326;2023-11-19T12:32:37;17.23;;;9.90;;
32347;SDS011;18821;44.800;10.326;2023-11-19T12:35:10;15.13;;;8.68;;
32347;SDS011;18821;44.800;10.326;2023-11-19T12:37:44;17.33;;;8.95;;
32347;SDS011;18821;44.800;10.326;2023-11-19T12:40:19;19.33;;;8.35;;
32347;SDS011;18821;44.800;10.326;2023-11-19T12:42:49;16.45;;;7.70;;
32347;SDS011;18821;44.800;10.326;2023-11-19T12:45:16;13.52;;;7.05;;
32347;SDS011;18821;44.800;10.326;2023-11-19T12:51:12;12.15;;;6.85;;
32347;SDS011;18821;44.800;10.326;2023-11-19T12:53:51;15.63;;;7.15;;
32347;SDS011;18821;44.800;10.326;2023-11-19T12:56:23;15.32;;;7.72;;
32347;SDS011;18821;44.800;10.326;2023-11-19T12:58:50;15.38;;;7.60;;
32347;SDS011;18821;44.800;10.326;2023-11-19T13:01:17;15.93;;;7.40;;
32347;SDS011;18821;44.800;10.326;2023-11-19T13:03:47;12.68;;;6.75;;
32347;SDS011;18821;44.800;10.326;2023-11-19T13:06:16;18.63;;;7.15;;
32347;SDS011;18821;44.800;10.326;2023-11-19T13:08:47;14.15;;;7.28;;
32347;SDS011;18821;44.800;10.326;2023-11-19T13:11:15;12.32;;;6.47;;
32347;SDS011;18821;44.800;10.326;2023-11-19T13:14:02;14.70;;;6.95;;
32347;SDS011;18821;44.800;10.326;2023-11-19T13:16:30;16.65;;;7.10;;
32347;SDS011;18821;44.800;10.326;2023-11-19T13:18:56;14.13;;;7.28;;
32347;SDS011;18821;44.800;10.326;2023-11-19T13:21:24;12.32;;;6.93;;
32347;SDS011;18821;44.800;10.326;2023-11-19T13:23:50;15.13;;;6.78;;
32347;SDS011;18821;44.800;10.326;2023-11-19T13:26:17;14.07;;;6.25;;
32347;SDS011;18821;44.800;10.326;2023-11-19T13:28:43;17.08;;;7.22;;
32347;SDS011;18821;44.800;10.326;2023-11-19T13:31:10;13.38;;;6.63;;
32347;SDS011;18821;44.800;10.326;2023-11-19T13:33:36;21.58;;;7.18;;
32347;SDS011;18821;44.800;10.326;2023-11-19T13:36:03;18.60;;;6.78;;
32347;SDS011;18821;44.800;10.326;2023-11-19T13:38:33;15.90;;;6.70;;
32347;SDS011;18821;44.800;10.326;2023-11-19T13:41:01;15.52;;;7.57;;
32347;SDS011;18821;44.800;10.326;2023-11-19T13:43:27;15.60;;;6.57;;
32347;SDS011;18821;44.800;10.326;2023-11-19T13:45:56;14.85;;;6.45;;
32347;SDS011;18821;44.800;10.326;2023-11-19T13:48:23;12.65;;;6.50;;
32347;SDS011;18821;44.800;10.326;2023-11-19T13:50:50;13.60;;;6.57;;
32347;SDS011;18821;44.800;10.326;2023-11-19T13:53:16;12.00;;;5.80;;
32347;SDS011;18821;44.800;10.326;2023-11-19T13:55:42;13.93;;;6.82;;
32347;SDS011;18821;44.800;10.326;2023-11-19T13:58:09;10.23;;;5.93;;
32347;SDS011;18821;44.800;10.326;2023-11-19T14:00:36;13.48;;;5.43;;
32347;SDS011;18821;44.800;10.326;2023-11-19T14:03:02;8.10;;;5.10;;
32347;SDS011;18821;44.800;10.326;2023-11-19T14:05:28;11.57;;;5.65;;
32347;SDS011;18821;44.800;10.326;2023-11-19T14:07:55;9.80;;;5.85;;
32347;SDS011;18821;44.800;10.326;2023-11-19T14:10:22;9.45;;;5.65;;
32347;SDS011;18821;44.800;10.326;2023-11-19T14:12:48;10.57;;;5.15;;
32347;SDS011;18821;44.800;10.326;2023-11-19T14:15:18;10.93;;;5.70;;
32347;SDS011;18821;44.800;10.326;2023-11-19T14:17:44;10.30;;;4.50;;
32347;SDS011;18821;44.800;10.326;2023-11-19T14:20:11;9.90;;;4.05;;
32347;SDS011;18821;44.800;10.326;2023-11-19T14:22:41;9.68;;;4.65;;
32347;SDS011;18821;44.800;10.326;2023-11-19T14:25:09;8.27;;;4.20;;
32347;SDS011;18821;44.800;10.326;2023-11-19T14:27:36;7.75;;;4.57;;
32347;SDS011;18821;44.800;10.326;2023-11-19T14:30:04;11.18;;;3.80;;
32347;SDS011;18821;44.800;10.326;2023-11-19T14:32:31;10.35;;;3.97;;
32347;SDS011;18821;44.800;10.326;2023-11-19T14:34:57;7.28;;;3.53;;
32347;SDS011;18821;44.800;10.326;2023-11-19T14:37:24;12.00;;;3.35;;
32347;SDS011;18821;44.800;10.326;2023-11-19T14:39:50;11.63;;;4.28;;
32347;SDS011;18821;44.800;10.326;2023-11-19T14:42:16;8.80;;;4.35;;
32347;SDS011;18821;44.800;10.326;2023-11-19T14:44:43;10.55;;;4.65;;
32347;SDS011;18821;44.800;10.326;2023-11-19T14:47:09;9.63;;;4.25;;
32347;SDS011;18821;44.800;10.326;2023-11-19T14:49:35;13.07;;;5.53;;
32347;SDS011;18821;44.800;10.326;2023-11-19T14:52:04;9.20;;;4.93;;
32347;SDS011;18821;44.800;10.326;2023-11-19T14:54:31;10.60;;;4.68;;
32347;SDS011;18821;44.800;10.326;2023-11-19T14:57:04;16.45;;;7.22;;